AFL5615 UHHH-UHPP
Flight info
| Callsign | AFL5615 |
|---|---|
| Flight time | 2h 18m |
| Altitude | 33000 |
| Route | TOMSU N222 FI B915 UB T577 SAMIK |
| Aircraft | B772/H-VGD/A |
Departure
| Time | 2026-05-04 18:08 |
|---|---|
| Airport | Khabarovsk Novy Airport (UHHH) |
Arrival
| Time | 2026-05-04 20:27 |
|---|---|
| Airport | Yelizovo Airport (UHPP) |
| Time | Latitude | Longitude | Altitude | Speed | Heading |
|---|---|---|---|---|---|
| 2026-05-04 17:42 | 48.52412 | 135.17096 | 257 ft | 0 kts | 312° |
| 2026-05-04 17:57 | 48.52407 | 135.17104 | 257 ft | 2 kts | 313° |
| 2026-05-04 17:58 | 48.52397 | 135.17120 | 257 ft | 2 kts | 312° |
| 2026-05-04 17:58 | 48.52387 | 135.17137 | 257 ft | 2 kts | 314° |
| 2026-05-04 17:58 | 48.52374 | 135.17151 | 257 ft | 2 kts | 341° |
| 2026-05-04 17:58 | 48.52360 | 135.17156 | 257 ft | 2 kts | 2° |
| 2026-05-04 17:59 | 48.52345 | 135.17151 | 257 ft | 2 kts | 23° |
| 2026-05-04 17:59 | 48.52334 | 135.17142 | 257 ft | 0 kts | 41° |
| 2026-05-04 17:59 | 48.52331 | 135.17137 | 257 ft | 0 kts | 42° |
| 2026-05-04 18:00 | 48.52332 | 135.17139 | 257 ft | 0 kts | 43° |
| 2026-05-04 18:01 | 48.52336 | 135.17145 | 257 ft | 1 kts | 41° |
| 2026-05-04 18:01 | 48.52344 | 135.17154 | 257 ft | 1 kts | 40° |
| 2026-05-04 18:01 | 48.52354 | 135.17168 | 257 ft | 2 kts | 40° |
| 2026-05-04 18:02 | 48.52387 | 135.17210 | 257 ft | 6 kts | 40° |
| 2026-05-04 18:02 | 48.52429 | 135.17265 | 257 ft | 9 kts | 43° |
| 2026-05-04 18:02 | 48.52476 | 135.17331 | 257 ft | 9 kts | 43° |
| 2026-05-04 18:02 | 48.52496 | 135.17413 | 257 ft | 9 kts | 105° |
| 2026-05-04 18:03 | 48.52463 | 135.17493 | 257 ft | 9 kts | 131° |
| 2026-05-04 18:03 | 48.52420 | 135.17564 | 257 ft | 9 kts | 132° |
| 2026-05-04 18:03 | 48.52378 | 135.17635 | 257 ft | 9 kts | 131° |
| 2026-05-04 18:03 | 48.52335 | 135.17708 | 257 ft | 9 kts | 131° |
| 2026-05-04 18:04 | 48.52293 | 135.17778 | 257 ft | 9 kts | 131° |
| 2026-05-04 18:04 | 48.52282 | 135.17859 | 257 ft | 9 kts | 58° |
| 2026-05-04 18:04 | 48.52450 | 135.18089 | 257 ft | 23 kts | 41° |
| 2026-05-04 18:05 | 48.52588 | 135.18277 | 257 ft | 29 kts | 41° |
| 2026-05-04 18:05 | 48.52758 | 135.18507 | 257 ft | 35 kts | 41° |
| 2026-05-04 18:05 | 48.52957 | 135.18777 | 257 ft | 40 kts | 42° |
| 2026-05-04 18:05 | 48.53163 | 135.19060 | 257 ft | 38 kts | 42° |
| 2026-05-04 18:06 | 48.53534 | 135.19565 | 257 ft | 34 kts | 42° |
| 2026-05-04 18:06 | 48.53704 | 135.19797 | 257 ft | 31 kts | 41° |
| 2026-05-04 18:06 | 48.53847 | 135.19991 | 257 ft | 18 kts | 42° |
| 2026-05-04 18:07 | 48.53930 | 135.20055 | 257 ft | 8 kts | 71° |
| 2026-05-04 18:07 | 48.53886 | 135.20050 | 257 ft | 10 kts | 225° |
| 2026-05-04 18:07 | 48.53857 | 135.20004 | 257 ft | 0 kts | 222° |
| 2026-05-04 18:07 | 48.53762 | 135.19875 | 257 ft | 48 kts | 221° |
| 2026-05-04 18:08 | 48.53351 | 135.19315 | 257 ft | 107 kts | 222° |
| 2026-05-04 18:08 | 48.52676 | 135.18388 | 297 ft | 148 kts | 214° |
| 2026-05-04 18:08 | 48.51888 | 135.17355 | 683 ft | 155 kts | 222° |
| 2026-05-04 18:08 | 48.51114 | 135.16171 | 1165 ft | 163 kts | 226° |
| 2026-05-04 18:09 | 48.49404 | 135.13829 | 1785 ft | 174 kts | 218° |
| 2026-05-04 18:09 | 48.47400 | 135.11206 | 2014 ft | 207 kts | 222° |
| 2026-05-04 18:10 | 48.46289 | 135.09689 | 2247 ft | 223 kts | 222° |
| 2026-05-04 18:10 | 48.45108 | 135.08077 | 2444 ft | 238 kts | 222° |
| 2026-05-04 18:10 | 48.43848 | 135.06363 | 2706 ft | 248 kts | 222° |
| 2026-05-04 18:10 | 48.42657 | 135.04523 | 3123 ft | 249 kts | 236° |
| 2026-05-04 18:11 | 48.42020 | 135.02083 | 3522 ft | 253 kts | 262° |
| 2026-05-04 18:11 | 48.42174 | 134.99446 | 3950 ft | 256 kts | 287° |
| 2026-05-04 18:11 | 48.43095 | 134.97182 | 4350 ft | 262 kts | 314° |
| 2026-05-04 18:11 | 48.44665 | 134.95737 | 4756 ft | 268 kts | 341° |
| 2026-05-04 18:12 | 48.46498 | 134.95224 | 5148 ft | 270 kts | 350° |
| 2026-05-04 18:12 | 48.48343 | 134.94862 | 5549 ft | 271 kts | 350° |
| 2026-05-04 18:12 | 48.50228 | 134.94502 | 5931 ft | 272 kts | 350° |
| 2026-05-04 18:12 | 48.52087 | 134.94145 | 6296 ft | 273 kts | 350° |
| 2026-05-04 18:13 | 48.53977 | 134.93782 | 6660 ft | 275 kts | 350° |
| 2026-05-04 18:13 | 48.55863 | 134.93420 | 7020 ft | 276 kts | 350° |
| 2026-05-04 18:13 | 48.59689 | 134.92683 | 7723 ft | 278 kts | 350° |
| 2026-05-04 18:14 | 48.61594 | 134.92314 | 8065 ft | 278 kts | 349° |
| 2026-05-04 18:14 | 48.63526 | 134.91939 | 8283 ft | 283 kts | 349° |
| 2026-05-04 18:14 | 48.65495 | 134.91556 | 8576 ft | 285 kts | 349° |
| 2026-05-04 18:15 | 48.69439 | 134.91408 | 9145 ft | 293 kts | 12° |
| 2026-05-04 18:15 | 48.72760 | 134.94890 | 9686 ft | 303 kts | 54° |
| 2026-05-04 18:15 | 48.73768 | 134.97740 | 9748 ft | 313 kts | 65° |
| 2026-05-04 18:16 | 48.74654 | 135.00827 | 9748 ft | 322 kts | 66° |
| 2026-05-04 18:16 | 48.75529 | 135.03981 | 9750 ft | 330 kts | 66° |
| 2026-05-04 18:16 | 48.76424 | 135.07224 | 9757 ft | 337 kts | 66° |
| 2026-05-04 18:17 | 48.78286 | 135.13896 | 9773 ft | 348 kts | 66° |
| 2026-05-04 18:17 | 48.79237 | 135.17302 | 9779 ft | 352 kts | 66° |
| 2026-05-04 18:17 | 48.81148 | 135.24213 | 9778 ft | 360 kts | 66° |
| 2026-05-04 18:18 | 48.82121 | 135.27724 | 9788 ft | 362 kts | 66° |
| 2026-05-04 18:18 | 48.83098 | 135.31239 | 9790 ft | 365 kts | 66° |
| 2026-05-04 18:18 | 48.84086 | 135.34822 | 9788 ft | 367 kts | 66° |
| 2026-05-04 18:18 | 48.85076 | 135.38408 | 9787 ft | 369 kts | 66° |
| 2026-05-04 18:19 | 48.87058 | 135.45615 | 9810 ft | 371 kts | 66° |
| 2026-05-04 18:19 | 48.88047 | 135.49219 | 9808 ft | 372 kts | 66° |
| 2026-05-04 18:19 | 48.89035 | 135.52837 | 9807 ft | 373 kts | 66° |
| 2026-05-04 18:20 | 48.90029 | 135.56474 | 9819 ft | 373 kts | 66° |
| 2026-05-04 18:20 | 48.91034 | 135.60153 | 9826 ft | 374 kts | 66° |
| 2026-05-04 18:20 | 48.92026 | 135.63788 | 9823 ft | 374 kts | 66° |
| 2026-05-04 18:20 | 48.93016 | 135.67419 | 9819 ft | 375 kts | 67° |
| 2026-05-04 18:21 | 48.94025 | 135.71124 | 9827 ft | 375 kts | 66° |
| 2026-05-04 18:21 | 48.95021 | 135.74786 | 9845 ft | 375 kts | 67° |
| 2026-05-04 18:21 | 48.96013 | 135.78441 | 9854 ft | 375 kts | 66° |
| 2026-05-04 18:21 | 48.97042 | 135.82071 | 9849 ft | 375 kts | 62° |
| 2026-05-04 18:22 | 48.98371 | 135.85496 | 9854 ft | 374 kts | 54° |
| 2026-05-04 18:22 | 48.99977 | 135.88530 | 9896 ft | 371 kts | 45° |
| 2026-05-04 18:22 | 49.01792 | 135.91321 | 9921 ft | 370 kts | 42° |
| 2026-05-04 18:22 | 49.03614 | 135.94060 | 9932 ft | 370 kts | 43° |
| 2026-05-04 18:23 | 49.05456 | 135.96849 | 9928 ft | 371 kts | 42° |
| 2026-05-04 18:23 | 49.07283 | 135.99617 | 9945 ft | 370 kts | 42° |
| 2026-05-04 18:23 | 49.09090 | 136.02365 | 10003 ft | 369 kts | 42° |
| 2026-05-04 18:23 | 49.10912 | 136.05138 | 10091 ft | 367 kts | 42° |
| 2026-05-04 18:24 | 49.12748 | 136.07932 | 10103 ft | 368 kts | 42° |
| 2026-05-04 18:24 | 49.14595 | 136.10756 | 10148 ft | 369 kts | 42° |
| 2026-05-04 18:24 | 49.16450 | 136.13594 | 10231 ft | 368 kts | 42° |
| 2026-05-04 18:24 | 49.18282 | 136.16400 | 10306 ft | 369 kts | 42° |
| 2026-05-04 18:25 | 49.20126 | 136.19226 | 10368 ft | 369 kts | 42° |
| 2026-05-04 18:25 | 49.21910 | 136.21967 | 10419 ft | 369 kts | 42° |
| 2026-05-04 18:25 | 49.23731 | 136.24765 | 10477 ft | 369 kts | 42° |
| 2026-05-04 18:25 | 49.25551 | 136.27567 | 10529 ft | 370 kts | 42° |
| 2026-05-04 18:26 | 49.27363 | 136.30353 | 10625 ft | 371 kts | 42° |
| 2026-05-04 18:26 | 49.29182 | 136.33153 | 10765 ft | 370 kts | 42° |
| 2026-05-04 18:26 | 49.30994 | 136.35948 | 10894 ft | 371 kts | 42° |
| 2026-05-04 18:26 | 49.32803 | 136.38741 | 11005 ft | 371 kts | 41° |
| 2026-05-04 18:27 | 49.34614 | 136.41540 | 11119 ft | 372 kts | 41° |
| 2026-05-04 18:27 | 49.36444 | 136.44376 | 11240 ft | 372 kts | 41° |
| 2026-05-04 18:27 | 49.38254 | 136.47180 | 11363 ft | 372 kts | 41° |
| 2026-05-04 18:27 | 49.40086 | 136.50026 | 11490 ft | 373 kts | 41° |
| 2026-05-04 18:28 | 49.41896 | 136.52858 | 11606 ft | 374 kts | 43° |
| 2026-05-04 18:28 | 49.43522 | 136.55945 | 11736 ft | 377 kts | 51° |
| 2026-05-04 18:28 | 49.44878 | 136.59418 | 11862 ft | 380 kts | 59° |
| 2026-05-04 18:28 | 49.45914 | 136.63161 | 11978 ft | 382 kts | 66° |
| 2026-05-04 18:29 | 49.46804 | 136.67003 | 12102 ft | 383 kts | 68° |
| 2026-05-04 18:29 | 49.47697 | 136.70889 | 12214 ft | 384 kts | 68° |
| 2026-05-04 18:29 | 49.48576 | 136.74725 | 12334 ft | 385 kts | 68° |
| 2026-05-04 18:29 | 49.49472 | 136.78628 | 12452 ft | 386 kts | 68° |
| 2026-05-04 18:30 | 49.51254 | 136.86415 | 12704 ft | 387 kts | 68° |
| 2026-05-04 18:30 | 49.52145 | 136.90318 | 12837 ft | 387 kts | 68° |
| 2026-05-04 18:30 | 49.53032 | 136.94208 | 12958 ft | 388 kts | 68° |
| 2026-05-04 18:31 | 49.53930 | 136.98154 | 13085 ft | 388 kts | 68° |
| 2026-05-04 18:31 | 49.54819 | 137.02071 | 13213 ft | 389 kts | 68° |
| 2026-05-04 18:31 | 49.55705 | 137.05975 | 13336 ft | 390 kts | 67° |
| 2026-05-04 18:31 | 49.56595 | 137.09909 | 13459 ft | 390 kts | 67° |
| 2026-05-04 18:32 | 49.57484 | 137.13843 | 13588 ft | 391 kts | 67° |
| 2026-05-04 18:32 | 49.58379 | 137.17809 | 13718 ft | 392 kts | 67° |
| 2026-05-04 18:32 | 49.59274 | 137.21790 | 13842 ft | 394 kts | 67° |
| 2026-05-04 18:32 | 49.60170 | 137.25795 | 14070 ft | 394 kts | 68° |
| 2026-05-04 18:33 | 49.61053 | 137.29744 | 14314 ft | 395 kts | 67° |
| 2026-05-04 18:33 | 49.61949 | 137.33758 | 14542 ft | 397 kts | 67° |
| 2026-05-04 18:33 | 49.62844 | 137.37772 | 14773 ft | 398 kts | 67° |
| 2026-05-04 18:33 | 49.63748 | 137.41830 | 15003 ft | 400 kts | 67° |
| 2026-05-04 18:34 | 49.64646 | 137.45869 | 15239 ft | 401 kts | 67° |
| 2026-05-04 18:34 | 49.65558 | 137.49977 | 15476 ft | 402 kts | 67° |
| 2026-05-04 18:34 | 49.66455 | 137.54025 | 15706 ft | 404 kts | 67° |
| 2026-05-04 18:34 | 49.67366 | 137.58147 | 15936 ft | 405 kts | 67° |
| 2026-05-04 18:35 | 49.68270 | 137.62244 | 16174 ft | 406 kts | 66° |
| 2026-05-04 18:35 | 49.69178 | 137.66371 | 16403 ft | 408 kts | 68° |
| 2026-05-04 18:35 | 49.70090 | 137.70526 | 16615 ft | 409 kts | 68° |
| 2026-05-04 18:35 | 49.71013 | 137.74736 | 16838 ft | 411 kts | 67° |
| 2026-05-04 18:36 | 49.71923 | 137.78896 | 17065 ft | 412 kts | 67° |
| 2026-05-04 18:36 | 49.72834 | 137.83069 | 17292 ft | 413 kts | 67° |
| 2026-05-04 18:36 | 49.73753 | 137.87291 | 17509 ft | 415 kts | 67° |
| 2026-05-04 18:36 | 49.74681 | 137.91559 | 17739 ft | 416 kts | 67° |
| 2026-05-04 18:37 | 49.75600 | 137.95796 | 17967 ft | 417 kts | 67° |
| 2026-05-04 18:37 | 49.76522 | 138.00056 | 18183 ft | 419 kts | 67° |
| 2026-05-04 18:37 | 49.77436 | 138.04288 | 18409 ft | 420 kts | 67° |
| 2026-05-04 18:37 | 49.78368 | 138.08609 | 18630 ft | 421 kts | 67° |
| 2026-05-04 18:38 | 49.79286 | 138.12875 | 18849 ft | 422 kts | 67° |
| 2026-05-04 18:38 | 49.80211 | 138.17184 | 19073 ft | 424 kts | 67° |
| 2026-05-04 18:38 | 49.81137 | 138.21507 | 19284 ft | 425 kts | 67° |
| 2026-05-04 18:38 | 49.82071 | 138.25879 | 19515 ft | 426 kts | 67° |
| 2026-05-04 18:39 | 49.82996 | 138.30214 | 19731 ft | 427 kts | 67° |
| 2026-05-04 18:39 | 49.83929 | 138.34599 | 19946 ft | 428 kts | 67° |
| 2026-05-04 18:39 | 49.84851 | 138.38937 | 20167 ft | 429 kts | 67° |
| 2026-05-04 18:39 | 49.85793 | 138.43384 | 20381 ft | 431 kts | 67° |
| 2026-05-04 18:40 | 49.86715 | 138.47742 | 20585 ft | 432 kts | 67° |
| 2026-05-04 18:40 | 49.87656 | 138.52200 | 20805 ft | 433 kts | 67° |
| 2026-05-04 18:40 | 49.88584 | 138.56609 | 21020 ft | 434 kts | 67° |
| 2026-05-04 18:40 | 49.89513 | 138.61067 | 21228 ft | 436 kts | 67° |
| 2026-05-04 18:41 | 49.90435 | 138.65533 | 21439 ft | 437 kts | 68° |
| 2026-05-04 18:41 | 49.91368 | 138.70061 | 21610 ft | 439 kts | 68° |
| 2026-05-04 18:41 | 49.92290 | 138.74551 | 21798 ft | 440 kts | 68° |
| 2026-05-04 18:41 | 49.93217 | 138.79071 | 21992 ft | 442 kts | 68° |
| 2026-05-04 18:42 | 49.94150 | 138.83630 | 22185 ft | 443 kts | 68° |
| 2026-05-04 18:42 | 49.95078 | 138.88173 | 22378 ft | 444 kts | 68° |
| 2026-05-04 18:42 | 49.96011 | 138.92755 | 22573 ft | 445 kts | 68° |
| 2026-05-04 18:42 | 49.96940 | 138.97325 | 22757 ft | 447 kts | 68° |
| 2026-05-04 18:43 | 49.97870 | 139.01912 | 22945 ft | 448 kts | 68° |
| 2026-05-04 18:43 | 49.98808 | 139.06547 | 23183 ft | 449 kts | 69° |
| 2026-05-04 18:43 | 49.99739 | 139.11162 | 23396 ft | 449 kts | 69° |
| 2026-05-04 18:43 | 50.00682 | 139.15843 | 23575 ft | 451 kts | 69° |
| 2026-05-04 18:44 | 50.01610 | 139.20459 | 23748 ft | 453 kts | 69° |
| 2026-05-04 18:44 | 50.01925 | 139.22028 | 23811 ft | 454 kts | 69° |
| 2026-05-04 18:44 | 50.03493 | 139.29864 | 24133 ft | 456 kts | 69° |
| 2026-05-04 18:44 | 50.04429 | 139.34558 | 24329 ft | 457 kts | 69° |
| 2026-05-04 18:45 | 50.05371 | 139.39294 | 24515 ft | 459 kts | 70° |
| 2026-05-04 18:45 | 50.06307 | 139.44005 | 24700 ft | 460 kts | 70° |
| 2026-05-04 18:45 | 50.07251 | 139.48775 | 24897 ft | 462 kts | 70° |
| 2026-05-04 18:45 | 50.08189 | 139.53525 | 25086 ft | 463 kts | 70° |
| 2026-05-04 18:46 | 50.09146 | 139.58377 | 25264 ft | 465 kts | 70° |
| 2026-05-04 18:46 | 50.10084 | 139.63155 | 25459 ft | 466 kts | 70° |
| 2026-05-04 18:46 | 50.11029 | 139.67972 | 25654 ft | 468 kts | 71° |
| 2026-05-04 18:46 | 50.11984 | 139.72852 | 25832 ft | 469 kts | 71° |
| 2026-05-04 18:47 | 50.12926 | 139.77684 | 26017 ft | 471 kts | 71° |
| 2026-05-04 18:47 | 50.13884 | 139.82605 | 26201 ft | 472 kts | 71° |
| 2026-05-04 18:47 | 50.14829 | 139.87476 | 26383 ft | 474 kts | 71° |
| 2026-05-04 18:47 | 50.15785 | 139.92412 | 26567 ft | 475 kts | 71° |
| 2026-05-04 18:48 | 50.16737 | 139.97342 | 26748 ft | 476 kts | 71° |
| 2026-05-04 18:48 | 50.17688 | 140.02280 | 26924 ft | 478 kts | 71° |
| 2026-05-04 18:48 | 50.18635 | 140.07211 | 27098 ft | 479 kts | 71° |
| 2026-05-04 18:48 | 50.19599 | 140.12242 | 27276 ft | 480 kts | 71° |
| 2026-05-04 18:49 | 50.20542 | 140.17177 | 27434 ft | 482 kts | 71° |
| 2026-05-04 18:49 | 50.21500 | 140.22205 | 27601 ft | 483 kts | 71° |
| 2026-05-04 18:49 | 50.22458 | 140.27245 | 27770 ft | 485 kts | 71° |
| 2026-05-04 18:49 | 50.23414 | 140.32286 | 27949 ft | 485 kts | 71° |
| 2026-05-04 18:50 | 50.24364 | 140.37314 | 28131 ft | 486 kts | 71° |
| 2026-05-04 18:50 | 50.25317 | 140.42369 | 28297 ft | 487 kts | 71° |
| 2026-05-04 18:50 | 50.26279 | 140.47487 | 28503 ft | 487 kts | 71° |
| 2026-05-04 18:50 | 50.27217 | 140.52486 | 28726 ft | 487 kts | 71° |
| 2026-05-04 18:51 | 50.28172 | 140.57594 | 28950 ft | 487 kts | 71° |
| 2026-05-04 18:51 | 50.29116 | 140.62659 | 29202 ft | 486 kts | 71° |
| 2026-05-04 18:51 | 50.30060 | 140.67732 | 29458 ft | 485 kts | 71° |
| 2026-05-04 18:51 | 50.30994 | 140.72769 | 29655 ft | 485 kts | 72° |
| 2026-05-04 18:52 | 50.31932 | 140.77835 | 29836 ft | 485 kts | 72° |
| 2026-05-04 18:52 | 50.32861 | 140.82872 | 30049 ft | 485 kts | 72° |
| 2026-05-04 18:52 | 50.33790 | 140.87923 | 30285 ft | 484 kts | 72° |
| 2026-05-04 18:52 | 50.34724 | 140.93015 | 30502 ft | 484 kts | 72° |
| 2026-05-04 18:53 | 50.35645 | 140.98047 | 30719 ft | 483 kts | 72° |
| 2026-05-04 18:53 | 50.36567 | 141.03101 | 30912 ft | 483 kts | 72° |
| 2026-05-04 18:53 | 50.37481 | 141.08125 | 31127 ft | 483 kts | 72° |
| 2026-05-04 18:53 | 50.38395 | 141.13164 | 31358 ft | 482 kts | 72° |
| 2026-05-04 18:54 | 50.39307 | 141.18199 | 31577 ft | 482 kts | 72° |
| 2026-05-04 18:54 | 50.40225 | 141.23291 | 31770 ft | 482 kts | 72° |
| 2026-05-04 18:54 | 50.41130 | 141.28317 | 31989 ft | 481 kts | 72° |
| 2026-05-04 18:54 | 50.42025 | 141.33305 | 32202 ft | 481 kts | 72° |
| 2026-05-04 18:55 | 50.42936 | 141.38394 | 32397 ft | 481 kts | 73° |
| 2026-05-04 18:55 | 50.44725 | 141.48436 | 32762 ft | 481 kts | 73° |
| 2026-05-04 18:55 | 50.45617 | 141.53462 | 32785 ft | 482 kts | 73° |
| 2026-05-04 18:56 | 50.47410 | 141.63614 | 32788 ft | 481 kts | 73° |
| 2026-05-04 18:56 | 50.49126 | 141.73386 | 32784 ft | 481 kts | 74° |
| 2026-05-04 18:57 | 50.50893 | 141.83508 | 32784 ft | 481 kts | 74° |
| 2026-05-04 18:57 | 50.52648 | 141.93616 | 32790 ft | 481 kts | 74° |
| 2026-05-04 18:58 | 50.54395 | 142.03732 | 32808 ft | 480 kts | 74° |
| 2026-05-04 18:58 | 50.56130 | 142.13838 | 32828 ft | 480 kts | 74° |
| 2026-05-04 18:59 | 50.57860 | 142.23979 | 32829 ft | 480 kts | 74° |
| 2026-05-04 18:59 | 50.59575 | 142.34088 | 32830 ft | 480 kts | 74° |
| 2026-05-04 19:00 | 50.61287 | 142.44255 | 32830 ft | 480 kts | 74° |
| 2026-05-04 19:00 | 50.62985 | 142.54410 | 32830 ft | 480 kts | 75° |
| 2026-05-04 19:01 | 50.64672 | 142.64560 | 32831 ft | 482 kts | 75° |
| 2026-05-04 19:01 | 50.66355 | 142.74744 | 32827 ft | 481 kts | 76° |
| 2026-05-04 19:02 | 50.68351 | 142.84790 | 32828 ft | 481 kts | 70° |
| 2026-05-04 19:02 | 50.70652 | 142.94672 | 32818 ft | 481 kts | 70° |
| 2026-05-04 19:03 | 50.72913 | 143.04552 | 32810 ft | 481 kts | 70° |
| 2026-05-04 19:03 | 50.75162 | 143.14514 | 32808 ft | 481 kts | 70° |
| 2026-05-04 19:04 | 50.77377 | 143.24408 | 32809 ft | 482 kts | 70° |
| 2026-05-04 19:04 | 50.79598 | 143.34405 | 32809 ft | 482 kts | 71° |
| 2026-05-04 19:05 | 50.81797 | 143.44367 | 32809 ft | 482 kts | 71° |
| 2026-05-04 19:05 | 50.83992 | 143.54385 | 32811 ft | 483 kts | 71° |
| 2026-05-04 19:06 | 50.86177 | 143.64415 | 32811 ft | 483 kts | 71° |
| 2026-05-04 19:06 | 50.88347 | 143.74426 | 32807 ft | 482 kts | 72° |
| 2026-05-04 19:07 | 50.90520 | 143.84505 | 32810 ft | 482 kts | 72° |
| 2026-05-04 19:07 | 50.92669 | 143.94521 | 32820 ft | 482 kts | 72° |
| 2026-05-04 19:08 | 50.94798 | 144.04523 | 32831 ft | 483 kts | 72° |
| 2026-05-04 19:08 | 50.96944 | 144.14662 | 32831 ft | 483 kts | 72° |
| 2026-05-04 19:09 | 50.99060 | 144.24715 | 32831 ft | 481 kts | 72° |
| 2026-05-04 19:09 | 51.01170 | 144.34775 | 32832 ft | 481 kts | 72° |
| 2026-05-04 19:10 | 51.03314 | 144.44809 | 32833 ft | 483 kts | 72° |
| 2026-05-04 19:10 | 51.05465 | 144.54901 | 32833 ft | 482 kts | 72° |
| 2026-05-04 19:11 | 51.07599 | 144.64966 | 32834 ft | 482 kts | 72° |
| 2026-05-04 19:11 | 51.09726 | 144.75061 | 32831 ft | 481 kts | 73° |
| 2026-05-04 19:12 | 51.12894 | 144.90187 | 32824 ft | 481 kts | 73° |
| 2026-05-04 19:13 | 51.14984 | 145.00233 | 32826 ft | 481 kts | 73° |
| 2026-05-04 19:13 | 51.17070 | 145.10306 | 32826 ft | 481 kts | 73° |
| 2026-05-04 19:14 | 51.19157 | 145.20441 | 32827 ft | 481 kts | 73° |
| 2026-05-04 19:14 | 51.21233 | 145.30571 | 32827 ft | 481 kts | 74° |
| 2026-05-04 19:15 | 51.23284 | 145.40634 | 32827 ft | 480 kts | 74° |
| 2026-05-04 19:15 | 51.25338 | 145.50757 | 32828 ft | 481 kts | 74° |
| 2026-05-04 19:16 | 51.27383 | 145.60893 | 32828 ft | 480 kts | 74° |
| 2026-05-04 19:16 | 51.29418 | 145.71031 | 32825 ft | 479 kts | 75° |
| 2026-05-04 19:17 | 51.31433 | 145.81122 | 32827 ft | 480 kts | 75° |
| 2026-05-04 19:17 | 51.33461 | 145.91330 | 32827 ft | 480 kts | 75° |
| 2026-05-04 19:18 | 51.35466 | 146.01476 | 32826 ft | 479 kts | 75° |
| 2026-05-04 19:18 | 51.37456 | 146.11597 | 32827 ft | 479 kts | 76° |
| 2026-05-04 19:19 | 51.39449 | 146.21788 | 32828 ft | 479 kts | 76° |
| 2026-05-04 19:19 | 51.41415 | 146.31897 | 32828 ft | 479 kts | 76° |
| 2026-05-04 19:20 | 51.43380 | 146.42096 | 32829 ft | 478 kts | 76° |
| 2026-05-04 19:20 | 51.45292 | 146.52232 | 32829 ft | 478 kts | 76° |
| 2026-05-04 19:21 | 51.47207 | 146.62431 | 32829 ft | 478 kts | 76° |
| 2026-05-04 19:21 | 51.49117 | 146.72662 | 32827 ft | 478 kts | 77° |
| 2026-05-04 19:22 | 51.51001 | 146.82805 | 32828 ft | 477 kts | 77° |
| 2026-05-04 19:22 | 51.52883 | 146.92986 | 32828 ft | 477 kts | 77° |
| 2026-05-04 19:23 | 51.54755 | 147.03174 | 32829 ft | 478 kts | 77° |
| 2026-05-04 19:23 | 51.56614 | 147.13339 | 32829 ft | 476 kts | 77° |
| 2026-05-04 19:24 | 51.58467 | 147.23540 | 32829 ft | 475 kts | 77° |
| 2026-05-04 19:24 | 51.60315 | 147.33760 | 32829 ft | 475 kts | 77° |
| 2026-05-04 19:25 | 51.62135 | 147.43883 | 32830 ft | 474 kts | 77° |
| 2026-05-04 19:25 | 51.63959 | 147.54091 | 32830 ft | 474 kts | 77° |
| 2026-05-04 19:26 | 51.65772 | 147.64291 | 32831 ft | 474 kts | 77° |
| 2026-05-04 19:26 | 51.67566 | 147.74443 | 32829 ft | 473 kts | 78° |
| 2026-05-04 19:27 | 51.69352 | 147.84608 | 32829 ft | 472 kts | 78° |
| 2026-05-04 19:27 | 51.71131 | 147.94791 | 32830 ft | 473 kts | 78° |
| 2026-05-04 19:28 | 51.72896 | 148.04947 | 32830 ft | 472 kts | 78° |
| 2026-05-04 19:28 | 51.74658 | 148.15152 | 32831 ft | 473 kts | 78° |
| 2026-05-04 19:29 | 51.76402 | 148.25302 | 32831 ft | 473 kts | 78° |
| 2026-05-04 19:29 | 51.78150 | 148.35547 | 32832 ft | 472 kts | 78° |
| 2026-05-04 19:30 | 51.79878 | 148.45726 | 32832 ft | 473 kts | 78° |
| 2026-05-04 19:30 | 51.81610 | 148.55988 | 32833 ft | 472 kts | 78° |
| 2026-05-04 19:31 | 51.83325 | 148.66213 | 32833 ft | 473 kts | 79° |
| 2026-05-04 19:31 | 51.85028 | 148.76431 | 32832 ft | 473 kts | 79° |
| 2026-05-04 19:32 | 51.86730 | 148.86699 | 32833 ft | 473 kts | 80° |
| 2026-05-04 19:32 | 51.88420 | 148.96953 | 32833 ft | 473 kts | 80° |
| 2026-05-04 19:33 | 51.90104 | 149.07234 | 32833 ft | 473 kts | 80° |
| 2026-05-04 19:33 | 51.91775 | 149.17503 | 32834 ft | 473 kts | 80° |
| 2026-05-04 19:34 | 51.93438 | 149.27782 | 32835 ft | 473 kts | 81° |
| 2026-05-04 19:34 | 51.95092 | 149.38065 | 32835 ft | 473 kts | 81° |
| 2026-05-04 19:35 | 51.96742 | 149.48395 | 32836 ft | 472 kts | 81° |
| 2026-05-04 19:35 | 51.98380 | 149.58707 | 32835 ft | 471 kts | 81° |
| 2026-05-04 19:36 | 52.00001 | 149.68950 | 32836 ft | 470 kts | 82° |
| 2026-05-04 19:36 | 52.01588 | 149.79112 | 32836 ft | 469 kts | 82° |
| 2026-05-04 19:37 | 52.03182 | 149.89368 | 32845 ft | 469 kts | 82° |
| 2026-05-04 19:37 | 52.04773 | 149.99658 | 32855 ft | 469 kts | 82° |
| 2026-05-04 19:38 | 52.06283 | 150.09923 | 32858 ft | 469 kts | 83° |
| 2026-05-04 19:38 | 52.07758 | 150.20180 | 32859 ft | 469 kts | 83° |
| 2026-05-04 19:39 | 52.09236 | 150.30505 | 32859 ft | 469 kts | 83° |
| 2026-05-04 19:39 | 52.10705 | 150.40822 | 32844 ft | 469 kts | 83° |
| 2026-05-04 19:40 | 52.12167 | 150.51161 | 32844 ft | 471 kts | 83° |
| 2026-05-04 19:40 | 52.13622 | 150.61508 | 32845 ft | 472 kts | 84° |
| 2026-05-04 19:41 | 52.15082 | 150.71960 | 32842 ft | 472 kts | 85° |
| 2026-05-04 19:41 | 52.16518 | 150.82315 | 32843 ft | 473 kts | 85° |
| 2026-05-04 19:42 | 52.17960 | 150.92784 | 32841 ft | 475 kts | 85° |
| 2026-05-04 19:42 | 52.19394 | 151.03271 | 32843 ft | 475 kts | 86° |
| 2026-05-04 19:43 | 52.20824 | 151.13814 | 32854 ft | 478 kts | 86° |
| 2026-05-04 19:43 | 52.22245 | 151.24355 | 32865 ft | 479 kts | 86° |
| 2026-05-04 19:44 | 52.23473 | 151.33519 | 32866 ft | 480 kts | 87° |
| 2026-05-04 19:44 | 52.24921 | 151.44078 | 32865 ft | 482 kts | 86° |
| 2026-05-04 19:45 | 52.26421 | 151.54768 | 32866 ft | 482 kts | 87° |
| 2026-05-04 19:45 | 52.27901 | 151.65414 | 32867 ft | 483 kts | 88° |
| 2026-05-04 19:46 | 52.29369 | 151.76057 | 32865 ft | 481 kts | 88° |
| 2026-05-04 19:46 | 52.30826 | 151.86710 | 32865 ft | 481 kts | 88° |
| 2026-05-04 19:47 | 52.32277 | 151.97400 | 32866 ft | 482 kts | 88° |
| 2026-05-04 19:47 | 52.33711 | 152.08050 | 32868 ft | 484 kts | 88° |
| 2026-05-04 19:48 | 52.35153 | 152.18829 | 32868 ft | 484 kts | 88° |
| 2026-05-04 19:48 | 52.36569 | 152.29498 | 32869 ft | 486 kts | 88° |
| 2026-05-04 19:49 | 52.37996 | 152.40329 | 32868 ft | 485 kts | 88° |
| 2026-05-04 19:49 | 52.39405 | 152.51111 | 32870 ft | 487 kts | 88° |
| 2026-05-04 19:50 | 52.40805 | 152.61903 | 32871 ft | 489 kts | 88° |
| 2026-05-04 19:50 | 52.42204 | 152.72766 | 32868 ft | 489 kts | 89° |
| 2026-05-04 19:51 | 52.43595 | 152.83653 | 32870 ft | 490 kts | 89° |
| 2026-05-04 19:51 | 52.44975 | 152.94542 | 32872 ft | 490 kts | 89° |
| 2026-05-04 19:52 | 52.46352 | 153.05501 | 32883 ft | 493 kts | 89° |
| 2026-05-04 19:52 | 52.47725 | 153.16507 | 32893 ft | 495 kts | 89° |
| 2026-05-04 19:53 | 52.49095 | 153.27588 | 32895 ft | 497 kts | 89° |
| 2026-05-04 19:53 | 52.50452 | 153.38640 | 32895 ft | 498 kts | 89° |
| 2026-05-04 19:54 | 52.51810 | 153.49791 | 32896 ft | 499 kts | 89° |
| 2026-05-04 19:54 | 52.53158 | 153.60963 | 32898 ft | 502 kts | 89° |
| 2026-05-04 19:55 | 52.54510 | 153.72258 | 32891 ft | 501 kts | 90° |
| 2026-05-04 19:55 | 52.55840 | 153.83460 | 32893 ft | 502 kts | 90° |
| 2026-05-04 19:56 | 52.57156 | 153.94640 | 32894 ft | 501 kts | 90° |
| 2026-05-04 19:56 | 52.58467 | 154.05891 | 32895 ft | 503 kts | 90° |
| 2026-05-04 19:57 | 52.59769 | 154.17169 | 32897 ft | 509 kts | 90° |
| 2026-05-04 19:57 | 52.61084 | 154.28639 | 32898 ft | 508 kts | 89° |
| 2026-05-04 19:58 | 52.62378 | 154.40024 | 32900 ft | 510 kts | 89° |
| 2026-05-04 19:58 | 52.63665 | 154.51463 | 32900 ft | 510 kts | 89° |
| 2026-05-04 19:59 | 52.64935 | 154.62962 | 32902 ft | 510 kts | 89° |
| 2026-05-04 19:59 | 52.66180 | 154.74381 | 32894 ft | 509 kts | 90° |
| 2026-05-04 20:00 | 52.67416 | 154.85855 | 32896 ft | 512 kts | 90° |
| 2026-05-04 20:00 | 52.68648 | 154.97389 | 32897 ft | 513 kts | 89° |
| 2026-05-04 20:01 | 52.69881 | 155.09030 | 32898 ft | 514 kts | 89° |
| 2026-05-04 20:01 | 52.71091 | 155.20581 | 32899 ft | 516 kts | 89° |
| 2026-05-04 20:02 | 52.72301 | 155.32230 | 32900 ft | 517 kts | 89° |
| 2026-05-04 20:02 | 52.73504 | 155.43935 | 32902 ft | 518 kts | 89° |
| 2026-05-04 20:03 | 52.74697 | 155.55670 | 32905 ft | 519 kts | 89° |
| 2026-05-04 20:03 | 52.75870 | 155.67213 | 32931 ft | 505 kts | 89° |
| 2026-05-04 20:03 | 52.76440 | 155.72841 | 32925 ft | 490 kts | 90° |
| 2026-05-04 20:04 | 52.76988 | 155.78330 | 32921 ft | 486 kts | 90° |
| 2026-05-04 20:04 | 52.77528 | 155.83890 | 32610 ft | 498 kts | 90° |
| 2026-05-04 20:04 | 52.78080 | 155.89665 | 31875 ft | 516 kts | 89° |
| 2026-05-04 20:04 | 52.78641 | 155.95503 | 30978 ft | 520 kts | 89° |
| 2026-05-04 20:05 | 52.79214 | 156.01445 | 30054 ft | 521 kts | 88° |
| 2026-05-04 20:05 | 52.79776 | 156.07298 | 29162 ft | 521 kts | 88° |
| 2026-05-04 20:05 | 52.80340 | 156.13203 | 28267 ft | 519 kts | 87° |
| 2026-05-04 20:05 | 52.80896 | 156.19034 | 27666 ft | 510 kts | 87° |
| 2026-05-04 20:06 | 52.81438 | 156.24712 | 27133 ft | 500 kts | 86° |
| 2026-05-04 20:06 | 52.82224 | 156.30276 | 26562 ft | 495 kts | 79° |
| 2026-05-04 20:06 | 52.83151 | 156.35689 | 25960 ft | 486 kts | 78° |
| 2026-05-04 20:06 | 52.84066 | 156.40994 | 25362 ft | 477 kts | 79° |
| 2026-05-04 20:07 | 52.84967 | 156.46225 | 24783 ft | 467 kts | 78° |
| 2026-05-04 20:07 | 52.85837 | 156.51311 | 24206 ft | 458 kts | 78° |
| 2026-05-04 20:07 | 52.86695 | 156.56328 | 23626 ft | 449 kts | 78° |
| 2026-05-04 20:07 | 52.87533 | 156.61253 | 23045 ft | 440 kts | 79° |
| 2026-05-04 20:08 | 52.88354 | 156.66104 | 22496 ft | 431 kts | 80° |
| 2026-05-04 20:08 | 52.89167 | 156.70921 | 21941 ft | 422 kts | 80° |
| 2026-05-04 20:08 | 52.89945 | 156.75551 | 21387 ft | 414 kts | 80° |
| 2026-05-04 20:08 | 52.90726 | 156.80243 | 20824 ft | 425 kts | 79° |
| 2026-05-04 20:09 | 52.91503 | 156.84915 | 20260 ft | 423 kts | 79° |
| 2026-05-04 20:09 | 52.92283 | 156.89598 | 19689 ft | 418 kts | 79° |
| 2026-05-04 20:09 | 52.93047 | 156.94168 | 19156 ft | 413 kts | 79° |
| 2026-05-04 20:09 | 52.93808 | 156.98772 | 18597 ft | 409 kts | 80° |
| 2026-05-04 20:10 | 52.94545 | 157.03241 | 18041 ft | 405 kts | 80° |
| 2026-05-04 20:10 | 52.95285 | 157.07722 | 17486 ft | 400 kts | 79° |
| 2026-05-04 20:10 | 52.96011 | 157.12140 | 16945 ft | 395 kts | 80° |
| 2026-05-04 20:10 | 52.96724 | 157.16469 | 16412 ft | 391 kts | 80° |
| 2026-05-04 20:11 | 52.97441 | 157.20834 | 15864 ft | 386 kts | 79° |
| 2026-05-04 20:11 | 52.98136 | 157.25108 | 15330 ft | 381 kts | 81° |
| 2026-05-04 20:11 | 52.98814 | 157.29294 | 14915 ft | 377 kts | 80° |
| 2026-05-04 20:11 | 52.99498 | 157.33507 | 14451 ft | 375 kts | 80° |
| 2026-05-04 20:12 | 53.00169 | 157.37645 | 13941 ft | 371 kts | 81° |
| 2026-05-04 20:12 | 53.00834 | 157.41759 | 13420 ft | 366 kts | 81° |
| 2026-05-04 20:12 | 53.01485 | 157.45798 | 12907 ft | 361 kts | 81° |
| 2026-05-04 20:12 | 53.02119 | 157.49739 | 12405 ft | 357 kts | 81° |
| 2026-05-04 20:13 | 53.02755 | 157.53702 | 11895 ft | 353 kts | 81° |
| 2026-05-04 20:13 | 53.03462 | 157.57579 | 11384 ft | 352 kts | 73° |
| 2026-05-04 20:13 | 53.04696 | 157.61124 | 10864 ft | 354 kts | 56° |
| 2026-05-04 20:13 | 53.06413 | 157.63921 | 10659 ft | 339 kts | 43° |
| 2026-05-04 20:14 | 53.08209 | 157.66257 | 10567 ft | 319 kts | 43° |
| 2026-05-04 20:14 | 53.09916 | 157.68428 | 10449 ft | 302 kts | 43° |
| 2026-05-04 20:14 | 53.11554 | 157.70512 | 10304 ft | 288 kts | 43° |
| 2026-05-04 20:14 | 53.13126 | 157.72517 | 10160 ft | 281 kts | 43° |
| 2026-05-04 20:15 | 53.14666 | 157.74486 | 10021 ft | 279 kts | 43° |
| 2026-05-04 20:15 | 53.16190 | 157.76434 | 9874 ft | 278 kts | 43° |
| 2026-05-04 20:15 | 53.17722 | 157.78394 | 9717 ft | 275 kts | 43° |
| 2026-05-04 20:15 | 53.19221 | 157.80310 | 9567 ft | 273 kts | 43° |
| 2026-05-04 20:16 | 53.20727 | 157.82237 | 9417 ft | 272 kts | 43° |
| 2026-05-04 20:16 | 53.22230 | 157.84164 | 9267 ft | 270 kts | 42° |
| 2026-05-04 20:16 | 53.23705 | 157.86055 | 9120 ft | 268 kts | 42° |
| 2026-05-04 20:16 | 53.25169 | 157.87933 | 8975 ft | 266 kts | 42° |
| 2026-05-04 20:17 | 53.26639 | 157.89822 | 8828 ft | 265 kts | 42° |
| 2026-05-04 20:17 | 53.28083 | 157.91679 | 8684 ft | 264 kts | 42° |
| 2026-05-04 20:17 | 53.29543 | 157.93559 | 8538 ft | 263 kts | 42° |
| 2026-05-04 20:17 | 53.30977 | 157.95406 | 8394 ft | 262 kts | 41° |
| 2026-05-04 20:18 | 53.32428 | 157.97276 | 8250 ft | 261 kts | 41° |
| 2026-05-04 20:18 | 53.33851 | 157.99112 | 8107 ft | 261 kts | 41° |
| 2026-05-04 20:18 | 53.35281 | 158.00960 | 7966 ft | 260 kts | 41° |
| 2026-05-04 20:18 | 53.36711 | 158.02808 | 7821 ft | 258 kts | 41° |
| 2026-05-04 20:19 | 53.38114 | 158.04623 | 7681 ft | 257 kts | 40° |
| 2026-05-04 20:19 | 53.39534 | 158.06462 | 7540 ft | 256 kts | 40° |
| 2026-05-04 20:19 | 53.40857 | 158.08418 | 7395 ft | 252 kts | 55° |
| 2026-05-04 20:19 | 53.41605 | 158.10983 | 7227 ft | 249 kts | 78° |
| 2026-05-04 20:20 | 53.41860 | 158.13917 | 6780 ft | 253 kts | 86° |
| 2026-05-04 20:20 | 53.41980 | 158.16792 | 6318 ft | 254 kts | 87° |
| 2026-05-04 20:20 | 53.42070 | 158.19707 | 5885 ft | 253 kts | 88° |
| 2026-05-04 20:20 | 53.42155 | 158.22639 | 5463 ft | 251 kts | 89° |
| 2026-05-04 20:21 | 53.41878 | 158.25497 | 5044 ft | 250 kts | 113° |
| 2026-05-04 20:21 | 53.40853 | 158.27805 | 4627 ft | 248 kts | 140° |
| 2026-05-04 20:21 | 53.37902 | 158.30437 | 3828 ft | 236 kts | 154° |
| 2026-05-04 20:22 | 53.36427 | 158.31488 | 3485 ft | 229 kts | 155° |
| 2026-05-04 20:22 | 53.34990 | 158.32495 | 3232 ft | 219 kts | 155° |
| 2026-05-04 20:22 | 53.33616 | 158.33455 | 2988 ft | 212 kts | 155° |
| 2026-05-04 20:22 | 53.32267 | 158.34398 | 2752 ft | 204 kts | 154° |
| 2026-05-04 20:23 | 53.31007 | 158.35277 | 2517 ft | 190 kts | 155° |
| 2026-05-04 20:23 | 53.29824 | 158.36102 | 2288 ft | 178 kts | 155° |
| 2026-05-04 20:23 | 53.28760 | 158.36844 | 2080 ft | 157 kts | 155° |
| 2026-05-04 20:23 | 53.27796 | 158.37517 | 1893 ft | 143 kts | 155° |
| 2026-05-04 20:24 | 53.26914 | 158.38132 | 1763 ft | 136 kts | 155° |
| 2026-05-04 20:24 | 53.26047 | 158.38737 | 1591 ft | 132 kts | 155° |
| 2026-05-04 20:24 | 53.25222 | 158.39313 | 1430 ft | 127 kts | 156° |
| 2026-05-04 20:24 | 53.24428 | 158.39865 | 1262 ft | 121 kts | 158° |
| 2026-05-04 20:25 | 53.23649 | 158.40389 | 1073 ft | 120 kts | 158° |
| 2026-05-04 20:25 | 53.22879 | 158.40935 | 920 ft | 118 kts | 157° |
| 2026-05-04 20:25 | 53.22137 | 158.41484 | 831 ft | 117 kts | 156° |
| 2026-05-04 20:25 | 53.21392 | 158.42044 | 704 ft | 121 kts | 156° |
| 2026-05-04 20:26 | 53.20620 | 158.42575 | 619 ft | 117 kts | 159° |
| 2026-05-04 20:26 | 53.19852 | 158.43062 | 483 ft | 118 kts | 158° |
| 2026-05-04 20:26 | 53.19089 | 158.43587 | 342 ft | 118 kts | 158° |
| 2026-05-04 20:26 | 53.18337 | 158.44102 | 166 ft | 117 kts | 157° |
| 2026-05-04 20:27 | 53.17659 | 158.44569 | 140 ft | 87 kts | 156° |
| 2026-05-04 20:27 | 53.17239 | 158.44861 | 140 ft | 42 kts | 157° |
| 2026-05-04 20:27 | 53.16988 | 158.45032 | 140 ft | 35 kts | 157° |
| 2026-05-04 20:27 | 53.16779 | 158.45177 | 140 ft | 29 kts | 157° |
| 2026-05-04 20:28 | 53.16600 | 158.45300 | 140 ft | 26 kts | 157° |
| 2026-05-04 20:28 | 53.16435 | 158.45415 | 140 ft | 24 kts | 158° |
| 2026-05-04 20:28 | 53.16285 | 158.45519 | 140 ft | 19 kts | 157° |
| 2026-05-04 20:28 | 53.16170 | 158.45598 | 140 ft | 11 kts | 157° |
| 2026-05-04 20:29 | 53.16108 | 158.45579 | 140 ft | 10 kts | 230° |
| 2026-05-04 20:29 | 53.16076 | 158.45471 | 140 ft | 10 kts | 246° |
| 2026-05-04 20:29 | 53.16081 | 158.45360 | 140 ft | 10 kts | 320° |
| 2026-05-04 20:29 | 53.16149 | 158.45303 | 140 ft | 11 kts | 336° |
| 2026-05-04 20:30 | 53.16225 | 158.45248 | 140 ft | 12 kts | 337° |
| 2026-05-04 20:30 | 53.16308 | 158.45192 | 140 ft | 13 kts | 337° |
| 2026-05-04 20:30 | 53.16396 | 158.45132 | 140 ft | 14 kts | 337° |
| 2026-05-04 20:30 | 53.16489 | 158.45068 | 140 ft | 14 kts | 337° |
| 2026-05-04 20:31 | 53.16585 | 158.45001 | 140 ft | 15 kts | 338° |
| 2026-05-04 20:31 | 53.16685 | 158.44934 | 140 ft | 15 kts | 338° |
| 2026-05-04 20:31 | 53.16788 | 158.44861 | 140 ft | 16 kts | 338° |
| 2026-05-04 20:31 | 53.16894 | 158.44789 | 140 ft | 16 kts | 337° |
| 2026-05-04 20:32 | 53.17003 | 158.44713 | 140 ft | 17 kts | 337° |
| 2026-05-04 20:32 | 53.17113 | 158.44636 | 140 ft | 17 kts | 337° |
| 2026-05-04 20:32 | 53.17219 | 158.44563 | 140 ft | 15 kts | 337° |
| 2026-05-04 20:32 | 53.17318 | 158.44496 | 140 ft | 15 kts | 337° |
| 2026-05-04 20:33 | 53.17422 | 158.44423 | 140 ft | 16 kts | 337° |
| 2026-05-04 20:33 | 53.17506 | 158.44357 | 140 ft | 12 kts | 317° |
| 2026-05-04 20:33 | 53.17503 | 158.44223 | 140 ft | 12 kts | 246° |
| 2026-05-04 20:33 | 53.17469 | 158.44083 | 140 ft | 13 kts | 247° |
| 2026-05-04 20:34 | 53.17427 | 158.43944 | 140 ft | 13 kts | 239° |
| 2026-05-04 20:34 | 53.17379 | 158.43808 | 140 ft | 13 kts | 239° |
| 2026-05-04 20:34 | 53.17330 | 158.43668 | 140 ft | 14 kts | 239° |
| 2026-05-04 20:34 | 53.17281 | 158.43527 | 140 ft | 14 kts | 239° |
| 2026-05-04 20:35 | 53.17230 | 158.43382 | 140 ft | 14 kts | 239° |
| 2026-05-04 20:35 | 53.17179 | 158.43237 | 140 ft | 14 kts | 239° |
| 2026-05-04 20:35 | 53.17127 | 158.43089 | 140 ft | 14 kts | 239° |
| 2026-05-04 20:35 | 53.17075 | 158.42941 | 140 ft | 14 kts | 240° |
| 2026-05-04 20:36 | 53.17047 | 158.42859 | 140 ft | 8 kts | 240° |
| 2026-05-04 20:36 | 53.17009 | 158.42784 | 140 ft | 8 kts | 207° |
| 2026-05-04 20:36 | 53.16965 | 158.42743 | 140 ft | 7 kts | 227° |
| 2026-05-04 20:36 | 53.16941 | 158.42682 | 140 ft | 3 kts | 238° |
| 2026-05-04 20:37 | 53.16940 | 158.42679 | 140 ft | 0 kts | 238° |